Date,TemperatureHighF,TemperatureAvgF,TemperatureLowF,DewpointHighF,DewpointAvgF,DewpointLowF,HumidityHigh,HumidityAvg,HumidityLow,PressureMaxIn,PressureMinIn,WindSpeedMaxMPH,WindSpeedAvgMPH,GustSpeedMaxMPH,PrecipitationSumIn
2014-1-1,24.2,18.7,14.1,10.3,5.4,2.0,70,56,43,30.32,30.13,6,1,10,0.00
2014-1-2,18.4,9.5,-0.6,13.7,5.5,-5.3,88,83,73,30.29,29.80,7,1,11,0.00
2014-1-3,9.2,3.2,-1.2,4.3,-4.5,-13.2,84,70,50,30.35,29.69,13,5,18,0.00
2014-1-4,24.2,12.2,-2.0,11.2,-2.2,-11.1,69,53,25,30.44,30.22,8,1,11,0.00
2014-1-5,35.5,28.6,19.7,31.5,19.1,9.2,96,69,43,30.25,29.88,4,0,7,0.14
2014-1-6,58.1,39.0,23.0,57.8,35.8,11.9,99,89,59,29.87,29.25,7,2,17,0.72
2014-1-7,22.7,8.6,3.4,12.3,-7.5,-13.9,70,47,36,30.17,29.44,19,3,19,0.00
2014-1-8,16.5,9.9,2.6,1.7,-3.6,-10.6,61,54,46,30.41,30.17,6,1,10,0.00
2014-1-9,26.0,17.5,12.3,7.4,4.8,1.3,70,57,40,30.60,30.37,8,1,16,0.00
2014-1-10,37.5,28.3,14.0,36.7,24.5,7.2,97,86,65,30.53,30.21,3,0,7,0.01
2014-1-11,60.7,50.3,37.0,60.4,49.7,36.5,99,98,96,30.20,29.20,8,2,18,0.41
2014-1-12,55.0,40.2,32.9,53.9,31.1,23.4,96,70,55,29.90,29.20,14,3,22,0.08
2014-1-13,49.1,38.9,29.0,38.3,28.4,22.5,81,67,45,30.06,29.83,8,1,12,0.00
2014-1-14,46.1,44.9,42.2,45.3,42.6,38.4,98,92,76,29.81,29.57,6,1,12,0.57
2014-1-15,44.5,38.1,31.6,41.1,33.8,30.6,96,85,61,29.94,29.70,5,0,6,0.02
2014-1-16,38.8,36.6,34.6,38.1,35.4,32.9,98,95,90,29.86,29.78,2,0,3,0.00
2014-1-17,41.2,35.3,30.7,36.4,27.4,20.3,97,75,43,29.91,29.83,5,0,11,0.00
2014-1-18,33.1,31.6,29.7,32.1,29.6,26.6,96,92,83,29.85,29.57,2,0,4,0.00
2014-1-19,32.2,28.1,25.6,31.2,23.0,18.4,96,81,66,29.67,29.48,6,1,10,0.01
2014-1-20,39.3,31.1,19.4,29.1,20.7,5.1,88,65,52,29.81,29.43,8,1,18,0.11
2014-1-21,18.6,11.6,6.7,3.3,-0.9,-9.7,83,58,34,29.98,29.82,12,2,12,0.00
2014-1-22,13.8,7.8,4.1,1.9,-6.7,-10.2,79,52,37,29.83,29.61,12,4,17,0.00
2014-1-23,16.2,7.9,1.3,-2.3,-7.3,-10.7,59,50,35,30.10,29.84,8,2,13,0.00
2014-1-24,13.8,8.3,2.2,-3.6,-7.4,-10.6,58,48,34,30.21,29.98,10,2,13,0.01
2014-1-25,31.8,21.1,10.0,23.6,11.8,-3.8,89,68,48,29.98,29.28,18,2,18,0.00
2014-1-26,19.7,14.7,9.2,14.8,0.6,-9.1,83,54,37,29.81,29.28,10,2,17,0.00
2014-1-27,40.6,25.8,15.1,34.9,15.4,-2.8,89,67,33,29.92,29.48,18,2,20,0.09
2014-1-28,15.4,11.4,5.0,-2.6,-8.8,-15.7,50,39,29,30.25,29.92,8,1,13,0.00
2014-1-29,21.8,15.4,10.5,2.4,-5.8,-11.2,69,40,24,30.17,29.92,9,1,10,0.00
2014-1-30,27.3,17.7,7.2,12.4,0.9,-6.3,77,48,32,30.37,30.12,11,1,11,0.00
2014-1-31,37.2,29.5,18.9,24.0,14.5,4.5,88,56,35,30.15,29.97,5,1,10,0.00